createdAt,value
2023-04-14T00:00:28.601Z,10.00
2023-04-14T00:05:55.934Z,9.10
2023-04-14T00:11:01.632Z,9.80
2023-04-14T00:19:59.732Z,11.00
2023-04-14T00:25:06.556Z,10.40
2023-04-14T00:30:14.258Z,9.60
2023-04-14T00:35:19.924Z,9.80
2023-04-14T00:40:25.793Z,11.80
2023-04-14T00:45:31.423Z,12.20
2023-04-14T00:50:37.011Z,12.00
2023-04-14T00:55:43.342Z,10.30
2023-04-14T01:00:53.965Z,10.10
2023-04-14T01:05:59.452Z,9.70
2023-04-14T01:11:14.214Z,11.20
2023-04-14T01:16:28.809Z,12.50
2023-04-14T01:21:46.516Z,10.90
2023-04-14T01:27:03.283Z,9.90
2023-04-14T01:32:12.912Z,9.80
2023-04-14T01:37:25.019Z,10.50
2023-04-14T01:42:33.989Z,11.40
2023-04-14T01:47:41.103Z,11.10
2023-04-14T01:52:52.900Z,10.60
2023-04-14T01:57:59.333Z,9.30
2023-04-14T02:03:06.669Z,9.90
2023-04-14T02:08:14.242Z,11.90
2023-04-14T02:13:21.556Z,11.10
2023-04-14T02:18:28.824Z,9.60
2023-04-14T02:23:34.401Z,10.20
2023-04-14T02:28:46.728Z,13.60
2023-04-14T02:33:55.946Z,11.40
2023-04-14T02:39:06.647Z,9.90
2023-04-14T02:44:18.656Z,10.00
2023-04-14T02:49:25.523Z,10.50
2023-04-14T02:54:34.439Z,10.70
2023-04-14T02:59:42.721Z,10.90
2023-04-14T03:04:50.082Z,11.30
2023-04-14T03:10:03.042Z,11.10
2023-04-14T03:15:10.083Z,11.50
2023-04-14T03:20:20.224Z,12.00
2023-04-14T03:25:28.490Z,12.30
2023-04-14T03:30:36.770Z,14.20
2023-04-14T03:35:44.830Z,14.20
2023-04-14T03:40:51.401Z,13.40
2023-04-14T03:45:59.647Z,14.30
2023-04-14T03:51:09.085Z,13.10
2023-04-14T03:56:16.118Z,14.80
2023-04-14T04:01:25.962Z,12.60
2023-04-14T04:06:32.938Z,10.50
2023-04-14T04:11:39.860Z,13.20
2023-04-14T04:16:49.926Z,14.30
2023-04-14T04:21:59.940Z,12.60
2023-04-14T04:27:11.958Z,14.00
2023-04-14T04:32:23.840Z,11.70
2023-04-14T04:37:30.053Z,14.20
2023-04-14T04:42:40.293Z,14.40
2023-04-14T04:47:47.177Z,14.90
2023-04-14T04:52:52.848Z,16.10
2023-04-14T04:57:58.615Z,16.50
2023-04-14T05:03:04.340Z,16.50
2023-04-14T05:08:09.829Z,15.80
2023-04-14T05:13:16.082Z,14.80
2023-04-14T05:18:21.604Z,14.70
2023-04-14T05:23:27.232Z,12.70
2023-04-14T05:28:32.891Z,12.80
2023-04-14T05:33:40.176Z,12.40
2023-04-14T05:38:46.497Z,13.90
2023-04-14T05:43:52.021Z,13.60
2023-04-14T05:48:58.140Z,13.20
2023-04-14T05:54:03.882Z,13.40
2023-04-14T05:59:09.473Z,11.50
2023-04-14T06:04:16.106Z,11.60
2023-04-14T06:09:22.337Z,13.40
2023-04-14T06:14:27.794Z,11.60
2023-04-14T06:19:33.465Z,10.10
2023-04-14T06:24:39.019Z,10.50
2023-04-14T06:29:44.616Z,10.30
2023-04-14T06:34:52.614Z,10.00
2023-04-14T06:39:59.954Z,9.00
2023-04-14T06:45:06.504Z,8.30
2023-04-14T06:50:12.617Z,8.10
2023-04-14T06:55:18.357Z,8.00
2023-04-14T07:00:24.743Z,5.80
2023-04-14T07:05:30.502Z,5.40
2023-04-14T07:10:35.950Z,5.80
2023-04-14T07:15:47.905Z,5.00
2023-04-14T07:20:54.262Z,4.60
2023-04-14T07:26:01.021Z,4.30
2023-04-14T07:31:10.779Z,4.80
2023-04-14T07:36:16.431Z,4.00
2023-04-14T07:41:22.244Z,3.40
2023-04-14T07:46:27.955Z,3.20
2023-04-14T07:51:33.654Z,2.80
2023-04-14T07:56:39.068Z,2.80
2023-04-14T08:01:45.029Z,3.20
2023-04-14T08:06:50.686Z,3.20
2023-04-14T08:11:57.357Z,3.00
2023-04-14T08:17:02.832Z,2.80
2023-04-14T08:22:08.438Z,2.40
2023-04-14T08:27:13.953Z,2.20
2023-04-14T08:32:19.709Z,2.20
2023-04-14T08:37:25.706Z,2.30
2023-04-14T08:42:31.259Z,2.10
2023-04-14T08:47:39.284Z,1.90
2023-04-14T08:52:48.930Z,2.20
2023-04-14T08:57:54.724Z,2.90
2023-04-14T09:03:00.814Z,2.40
2023-04-14T09:08:06.942Z,2.50
2023-04-14T09:13:15.484Z,2.70
2023-04-14T09:18:21.362Z,3.10
2023-04-14T09:23:26.985Z,3.50
2023-04-14T09:28:32.926Z,3.10
2023-04-14T09:33:44.251Z,2.70
2023-04-14T09:38:51.697Z,5.00
2023-04-14T09:44:07.147Z,3.50
2023-04-14T09:49:12.739Z,3.20
2023-04-14T09:54:25.748Z,3.70
2023-04-14T09:59:36.839Z,2.60
2023-04-14T10:04:42.510Z,3.10
2023-04-14T10:09:49.597Z,2.80
2023-04-14T10:14:55.137Z,3.00
2023-04-14T10:20:00.614Z,2.90
2023-04-14T10:25:09.133Z,3.10
2023-04-14T10:30:15.216Z,3.00
2023-04-14T10:35:21.863Z,2.60
2023-04-14T10:41:10.718Z,3.00
2023-04-14T10:46:18.034Z,3.10
2023-04-14T10:51:36.334Z,3.40
2023-04-14T10:56:42.260Z,3.50
2023-04-14T11:01:57.118Z,3.30
2023-04-14T11:07:10.041Z,3.00
2023-04-14T11:12:27.357Z,3.20
2023-04-14T11:17:37.398Z,2.70
2023-04-14T11:22:45.907Z,2.90
2023-04-14T11:27:52.148Z,2.40
2023-04-14T11:32:59.422Z,2.50
2023-04-14T11:38:09.381Z,2.30
2023-04-14T11:43:15.137Z,2.90
2023-04-14T11:48:21.773Z,2.80
2023-04-14T11:53:27.377Z,2.50
2023-04-14T11:58:34.060Z,2.60
2023-04-14T12:03:39.829Z,2.50
2023-04-14T12:08:51.160Z,2.30
2023-04-14T12:13:57.169Z,2.10
2023-04-14T12:19:03.612Z,1.50
2023-04-14T12:24:09.630Z,1.90
2023-04-14T12:29:15.231Z,2.10
2023-04-14T12:34:26.755Z,2.40
2023-04-14T12:39:32.249Z,1.80
2023-04-14T12:44:38.945Z,1.40
2023-04-14T12:49:45.086Z,2.10
2023-04-14T12:55:08.064Z,2.50
2023-04-14T13:00:17.775Z,3.00
2023-04-14T13:05:24.975Z,3.00
2023-04-14T13:10:30.379Z,3.00
2023-04-14T13:16:14.123Z,2.70
2023-04-14T13:21:04.072Z,2.40
2023-04-14T13:26:09.601Z,2.60
2023-04-14T13:31:18.331Z,2.70
2023-04-14T13:36:24.339Z,2.50
2023-04-14T13:41:30.475Z,2.60
2023-04-14T13:46:40.807Z,2.30
2023-04-14T13:51:47.683Z,2.20
2023-04-14T13:56:53.532Z,2.10
2023-04-14T14:01:59.158Z,2.40
2023-04-14T14:07:07.115Z,2.10
2023-04-14T14:12:13.604Z,2.10
2023-04-14T14:17:19.191Z,2.60
2023-04-14T14:22:24.597Z,2.50
2023-04-14T14:27:30.646Z,2.70
2023-04-14T14:32:36.577Z,2.40
2023-04-14T14:37:45.149Z,2.70
2023-04-14T14:42:53.513Z,3.20
2023-04-14T14:47:59.526Z,3.40
2023-04-14T14:53:05.313Z,3.60
2023-04-14T14:58:12.069Z,3.50
2023-04-14T15:03:17.927Z,4.40
2023-04-14T15:08:24.062Z,4.50
2023-04-14T15:13:30.106Z,4.50
2023-04-14T15:18:35.521Z,4.30
2023-04-14T15:23:43.754Z,4.50
2023-04-14T15:28:49.401Z,4.40
2023-04-14T15:33:55.066Z,5.70
2023-04-14T15:39:00.690Z,5.30
2023-04-14T15:44:06.383Z,4.50
2023-04-14T15:49:11.829Z,4.40
2023-04-14T15:54:17.304Z,4.40
2023-04-14T15:59:25.067Z,4.30
2023-04-14T16:04:30.998Z,3.60
2023-04-14T16:09:36.833Z,3.70
2023-04-14T16:14:43.284Z,3.50
2023-04-14T16:19:48.815Z,3.10
2023-04-14T16:24:54.468Z,3.10
2023-04-14T16:30:00.176Z,3.50
2023-04-14T16:35:06.415Z,3.20
2023-04-14T16:40:13.208Z,3.30
2023-04-14T16:45:19.233Z,3.50
2023-04-14T16:50:25.354Z,3.40
2023-04-14T16:55:31.451Z,4.00
2023-04-14T17:00:37.317Z,3.50
2023-04-14T17:05:43.539Z,4.20
2023-04-14T17:10:49.164Z,4.30
2023-04-14T17:16:02.473Z,7.00
2023-04-14T17:26:19.636Z,5.00
2023-04-14T17:31:25.327Z,6.20
2023-04-14T17:36:31.133Z,6.40
2023-04-14T17:41:37.226Z,7.70
2023-04-14T17:46:43.137Z,6.50
2023-04-14T17:51:48.711Z,7.20
2023-04-14T17:56:54.257Z,7.00
2023-04-14T18:01:59.810Z,6.40
2023-04-14T18:07:06.433Z,7.20
2023-04-14T18:12:12.218Z,7.50
2023-04-14T18:17:18.534Z,8.40
2023-04-14T18:22:24.166Z,6.70
2023-04-14T18:32:38.577Z,6.80
2023-04-14T18:37:46.459Z,6.30
2023-04-14T18:42:54.158Z,7.00
2023-04-14T18:47:59.883Z,7.70
2023-04-14T18:53:05.838Z,6.90
2023-04-14T18:58:14.399Z,7.40
2023-04-14T19:03:20.681Z,6.60
2023-04-14T19:08:27.340Z,7.10
2023-04-14T19:13:33.107Z,6.80
2023-04-14T19:18:41.855Z,8.30
2023-04-14T19:23:47.588Z,7.40
2023-04-14T19:28:53.863Z,6.40
2023-04-14T19:33:59.242Z,6.70
2023-04-14T19:39:05.122Z,7.60
2023-04-14T19:44:12.156Z,9.50
2023-04-14T19:49:17.994Z,7.30
2023-04-14T19:54:23.465Z,7.30
2023-04-14T19:59:29.618Z,8.10
2023-04-14T20:04:35.150Z,7.70
2023-04-14T20:09:44.961Z,7.60
2023-04-14T20:14:50.747Z,7.90
2023-04-14T20:19:56.095Z,7.50
2023-04-14T20:25:01.767Z,7.20
2023-04-14T20:30:11.136Z,6.60
2023-04-14T20:35:16.794Z,7.10
2023-04-14T20:40:22.374Z,7.90
2023-04-14T20:45:27.818Z,7.10
2023-04-14T20:50:34.051Z,6.90
2023-04-14T20:55:41.192Z,7.20
2023-04-14T21:00:47.213Z,7.70
2023-04-14T21:05:52.705Z,6.60
2023-04-14T21:11:15.835Z,8.10
2023-04-14T21:16:25.933Z,8.20
2023-04-14T21:21:31.773Z,8.00
2023-04-14T21:26:37.367Z,8.30
2023-04-14T21:31:44.135Z,8.10
2023-04-14T21:36:49.833Z,8.30
2023-04-14T21:41:57.058Z,8.70
2023-04-14T21:47:02.893Z,8.90
2023-04-14T21:52:10.227Z,8.10
2023-04-14T21:57:15.812Z,7.90
2023-04-14T22:02:21.817Z,8.40
2023-04-14T22:07:27.355Z,9.00
2023-04-14T22:12:34.654Z,8.00
2023-04-14T22:17:41.274Z,9.00
2023-04-14T22:22:46.956Z,8.60
2023-04-14T22:27:52.504Z,7.90
2023-04-14T22:32:58.041Z,8.30
2023-04-14T22:38:03.676Z,8.50
2023-04-14T22:43:09.339Z,7.50
2023-04-14T22:48:15.288Z,8.00
2023-04-14T22:53:20.976Z,8.00
2023-04-14T22:58:27.263Z,6.80
2023-04-14T23:03:33.196Z,7.70
2023-04-14T23:08:38.834Z,8.80
2023-04-14T23:13:44.640Z,7.40
2023-04-14T23:18:52.302Z,7.80
2023-04-14T23:23:57.692Z,8.50
2023-04-14T23:29:03.401Z,7.10
2023-04-14T23:34:11.184Z,8.30
2023-04-14T23:39:17.596Z,8.20
2023-04-14T23:44:23.113Z,7.70
2023-04-14T23:49:34.849Z,7.40
2023-04-14T23:54:42.352Z,8.40
2023-04-14T23:59:47.979Z,8.50
